Time;durP1;ratioP1;P1;durP2;ratioP2;P2;SDS_P1;SDS_P2;PMS_P1;PMS_P2;Temp;Humidity;BMP_temperature;BMP_pressure;BME280_temperature;BME280_humidity;BME280_pressure;Samples;Min_cycle;Max_cycle;Signal;HPM_P1;HPM_P2
2021/09/05 00:01:49;;;;;;;;;;;;;;;;;;;;;
2021/09/05 00:04:15;;;;;;;;;20.25;19.00;;;;;23.89;62.10;101173.69;4961315;28;75301;-66
2021/09/05 00:06:59;;;;;;;;;23.00;20.75;;;;;23.91;62.42;101185.38;4961259;28;45606;-66
2021/09/05 00:09:55;;;;;;;;;20.00;19.25;;;;;23.83;62.51;101167.75;4961350;28;45545;-66
2021/09/05 00:12:40;;;;;;;;;;;;;;;;;;;;;
2021/09/05 00:15:16;;;;;;;;;19.50;17.25;;;;;23.82;62.33;101173.34;4959628;28;74147;-66
2021/09/05 00:17:56;;;;;;;;;19.75;17.00;;;;;23.81;61.70;101172.44;4954262;28;46402;-66
2021/09/05 00:20:34;;;;;;;;;19.50;17.50;;;;;23.84;62.55;101179.56;4943315;28;45540;-66
2021/09/05 00:23:13;;;;;;;;;;;;;;;;;;;;;
2021/09/05 00:26:04;;;;;;;;;21.50;18.25;;;;;23.79;62.92;101182.59;4955353;28;75176;-66
2021/09/05 00:28:40;;;;;;;;;20.25;18.75;;;;;23.71;62.39;101163.28;4960587;28;46357;-66
2021/09/05 00:31:14;;;;;;;;;18.00;16.25;;;;;23.89;62.64;101195.50;4944372;28;45458;-66
2021/09/05 00:33:58;;;;;;;;;;;;;;;;;;;;;
2021/09/05 00:36:34;;;;;;;;;21.00;19.00;;;;;23.73;63.16;101174.91;4957852;28;75302;-66
2021/09/05 00:39:16;;;;;;;;;;;;;;;;;;;;;
2021/09/05 00:41:47;;;;;;;;;21.25;21.25;;;;;23.73;63.83;101184.97;4959509;28;67467;-66
2021/09/05 00:44:15;;;;;;;;;20.75;19.50;;;;;23.65;63.53;101172.81;4960625;28;45442;-66
2021/09/05 00:49:33;;;;;;;;;22.00;20.75;;;;;23.60;64.53;101172.31;4950988;28;45478;-66
2021/09/05 00:52:08;;;;;;;;;;;;;;;;;;;;;
2021/09/05 00:54:45;;;;;;;;;21.75;21.50;;;;;23.67;63.75;101191.75;4957019;28;72355;-66
2021/09/05 00:57:26;;;;;;;;;;;;;;;;;;;;;
2021/09/05 01:00:19;;;;;;;;;27.00;26.00;;;;;23.76;64.29;101195.63;4960152;28;71986;-66
2021/09/05 01:02:57;;;;;;;;;;;;;;;;;;;;;
2021/09/05 01:05:35;;;;;;;;;20.25;19.25;;;;;23.64;63.99;101176.53;4922310;28;72074;-66
2021/09/05 01:08:12;;;;;;;;;27.00;24.00;;;;;23.68;63.55;101183.47;4921550;28;47201;-66
2021/09/05 01:11:03;;;;;;;;;24.50;22.75;;;;;23.78;64.30;101202.66;4937704;28;45668;-66
2021/09/05 01:13:49;;;;;;;;;22.75;21.25;;;;;23.62;64.49;101177.66;4922782;28;45202;-66
2021/09/05 01:16:43;;;;;;;;;;;;;;;;;;;;;
2021/09/05 01:19:28;;;;;;;;;29.00;27.00;;;;;23.64;64.62;101181.13;4921527;28;75294;-66
2021/09/05 01:22:09;;;;;;;;;;;;;;;;;;;;;
2021/09/05 01:24:47;;;;;;;;;;;;;;;;;;;;;
2021/09/05 01:27:25;;;;;;;;;;;;;;;;;;;;;
2021/09/05 01:30:20;;;;;;;;;25.50;24.50;;;;;23.61;64.31;101182.22;4921400;28;75748;-66
2021/09/05 01:32:58;;;;;;;;;23.75;23.50;;;;;23.58;63.60;101179.75;4920895;28;45799;-66
2021/09/05 01:35:26;;;;;;;;;24.00;22.25;;;;;23.53;63.69;101175.69;4937379;28;45311;-66
2021/09/05 01:38:22;;;;;;;;;24.50;24.50;;;;;23.48;63.76;101173.31;4933539;28;46242;-66
2021/09/05 01:41:34;;;;;;;;;;;;;;;;;;;;;
2021/09/05 01:44:11;;;;;;;;;23.75;23.75;;;;;23.44;63.64;101169.97;4915473;28;71320;-66
2021/09/05 01:46:58;;;;;;;;;;;;;;;;;;;;;
2021/09/05 01:49:51;;;;;;;;;;;;;;;;;;;;;
2021/09/05 01:53:00;;;;;;;;;25.75;24.50;;;;;23.72;63.76;101224.09;4919675;28;74329;-66
2021/09/05 01:55:44;;;;;;;;;23.50;22.25;;;;;23.49;63.60;101195.00;4906933;28;45501;-66
2021/09/05 01:58:27;;;;;;;;;;;;;;;;;;;;;
2021/09/05 02:01:20;;;;;;;;;23.75;22.50;;;;;23.48;64.19;101197.84;4919934;28;73940;-66
2021/09/05 02:04:07;;;;;;;;;;;;;;;;;;;;;
2021/09/05 02:06:43;;;;;;;;;;;;;;;;;;;;;
2021/09/05 02:09:34;;;;;;;;;23.50;23.50;;;;;23.48;63.46;101192.38;4954029;28;69968;-66
2021/09/05 02:12:27;;;;;;;;;26.50;24.00;;;;;23.42;62.95;101190.13;4942935;28;45521;-66
2021/09/05 02:15:12;;;;;;;;;;;;;;;;;;;;;
2021/09/05 02:18:28;;;;;;;;;;;;;;;;;;;;;
2021/09/05 02:20:57;;;;;;;;;24.25;21.25;;;;;23.42;62.96;101187.41;4943651;28;68903;-66
2021/09/05 02:23:47;;;;;;;;;;;;;;;;;;;;;
2021/09/05 02:29:37;;;;;;;;;;;;;;;;;;;;;
2021/09/05 02:31:54;;;;;;;;;21.25;19.75;;;;;23.28;62.95;101183.06;4939762;28;45417;-66
2021/09/05 02:34:41;;;;;;;;;;;;;;;;;;;;;
2021/09/05 02:37:37;;;;;;;;;;;;;;;;;;;;;
2021/09/05 02:43:53;;;;;;;;;;;;;;;;;;;;;
2021/09/05 02:46:21;;;;;;;;;18.00;16.75;;;;;23.30;61.57;101192.88;4959258;28;71280;-66
2021/09/05 02:49:22;;;;;;;;;;;;;;;;;;;;;
2021/09/05 02:52:09;;;;;;;;;;;;;;;;;;;;;
2021/09/05 02:55:05;;;;;;;;;14.25;14.25;;;;;23.25;61.61;101191.47;4955670;28;67727;-66
2021/09/05 02:58:09;;;;;;;;;;;;;;;;;;;;;
2021/09/05 03:00:54;;;;;;;;;;;;;;;;;;;;;
2021/09/05 03:03:42;;;;;;;;;18.50;17.00;;;;;23.44;61.74;101221.72;4947714;28;71303;-66
2021/09/05 03:06:31;;;;;;;;;;;;;;;;;;;;;
2021/09/05 03:09:05;;;;;;;;;20.75;18.25;;;;;23.22;61.75;101198.06;4959095;28;71424;-66
2021/09/05 03:11:49;;;;;;;;;20.25;17.50;;;;;23.10;61.42;101182.66;4958717;28;47262;-66
2021/09/05 03:14:34;;;;;;;;;;;;;;;;;;;;;
2021/09/05 03:17:30;;;;;;;;;;;;;;;;;;;;;
2021/09/05 03:20:00;;;;;;;;;15.25;15.25;;;;;23.28;61.21;101211.16;4960907;28;72807;-66
2021/09/05 03:23:04;;;;;;;;;;;;;;;;;;;;;
2021/09/05 03:29:35;;;;;;;;;15.50;15.25;;;;;23.28;61.22;101219.34;4917427;28;45366;-66
2021/09/05 03:32:36;;;;;;;;;;;;;;;;;;;;;
2021/09/05 03:35:41;;;;;;;;;14.50;14.50;;;;;22.98;60.82;101175.44;4962107;28;73938;-66
2021/09/05 03:38:24;;;;;;;;;;;;;;;;;;;;;
2021/09/05 03:41:41;;;;;;;;;;;;;;;;;;;;;
2021/09/05 03:44:35;;;;;;;;;;;;;;;;;;;;;
2021/09/05 03:47:41;;;;;;;;;;;;;;;;;;;;;
2021/09/05 03:50:42;;;;;;;;;;;;;;;;;;;;;
2021/09/05 03:53:26;;;;;;;;;;;;;;;;;;;;;
2021/09/05 03:56:18;;;;;;;;;17.75;15.75;;;;;23.24;61.78;101211.56;4952143;28;73867;-66
2021/09/05 03:59:06;;;;;;;;;;;;;;;;;;;;;
2021/09/05 04:01:50;;;;;;;;;;;;;;;;;;;;;
2021/09/05 04:05:09;;;;;;;;;;;;;;;;;;;;;
2021/09/05 04:07:49;;;;;;;;;15.75;15.00;;;;;23.20;62.19;101204.59;4961692;28;71965;-66
2021/09/05 04:10:48;;;;;;;;;;;;;;;;;;;;;
2021/09/05 04:13:51;;;;;;;;;;;;;;;;;;;;;
2021/09/05 04:16:40;;;;;;;;;;;;;;;;;;;;;
2021/09/05 04:19:20;;;;;;;;;18.50;15.50;;;;;23.17;61.93;101211.16;4961211;28;72964;-66
2021/09/05 04:22:27;;;;;;;;;;;;;;;;;;;;;
2021/09/05 04:25:17;;;;;;;;;17.50;15.50;;;;;23.03;61.79;101195.00;4961206;28;72694;-66
2021/09/05 04:28:01;;;;;;;;;;;;;;;;;;;;;
2021/09/05 04:30:44;;;;;;;;;;;;;;;;;;;;;
2021/09/05 04:33:31;;;;;;;;;;;;;;;;;;;;;
2021/09/05 04:36:09;;;;;;;;;;;;;;;;;;;;;
2021/09/05 04:39:05;;;;;;;;;;;;;;;;;;;;;
2021/09/05 04:42:21;;;;;;;;;;;;;;;;;;;;;
2021/09/05 04:48:42;;;;;;;;;;;;;;;;;;;;;
2021/09/05 04:54:56;;;;;;;;;;;;;;;;;;;;;
2021/09/05 04:57:57;;;;;;;;;;;;;;;;;;;;;
2021/09/05 05:03:40;;;;;;;;;18.00;16.25;;;;;23.13;61.57;101250.50;4938772;28;45537;-66
2021/09/05 05:09:34;;;;;;;;;;;;;;;;;;;;;
2021/09/05 05:19:20;;;;;;;;;;;;;;;;;;;;;
2021/09/05 05:22:47;;;;;;;;;;;;;;;;;;;;;
2021/09/05 05:25:26;;;;;;;;;;;;;;;;;;;;;
2021/09/05 05:28:31;;;;;;;;;;;;;;;;;;;;;
2021/09/05 05:31:25;;;;;;;;;15.75;15.50;;;;;22.82;61.91;101263.72;4949917;28;71706;-66
2021/09/05 05:34:15;;;;;;;;;19.00;19.00;;;;;22.83;61.73;101273.59;4959987;28;46957;-66
2021/09/05 05:40:12;;;;;;;;;;;;;;;;;;;;;
2021/09/05 05:43:01;;;;;;;;;;;;;;;;;;;;;
2021/09/05 05:45:46;;;;;;;;;17.00;15.50;;;;;22.68;61.92;101253.00;4948054;28;75103;-66
2021/09/05 05:49:01;;;;;;;;;;;;;;;;;;;;;
2021/09/05 05:52:08;;;;;;;;;;;;;;;;;;;;;
2021/09/05 05:55:16;;;;;;;;;14.00;14.00;;;;;22.72;62.11;101281.69;4957894;28;72993;-66
2021/09/05 05:57:43;;;;;;;;;16.50;15.25;;;;;22.67;62.14;101273.03;4960403;28;46203;-66
2021/09/05 06:00:35;;;;;;;;;;;;;;;;;;;;;
2021/09/05 06:03:36;;;;;;;;;;;;;;;;;;;;;
2021/09/05 06:06:42;;;;;;;;;;;;;;;;;;;;;
2021/09/05 06:09:40;;;;;;;;;;;;;;;;;;;;;
2021/09/05 06:12:41;;;;;;;;;;;;;;;;;;;;;
2021/09/05 06:15:38;;;;;;;;;15.25;14.25;;;;;22.67;61.71;101290.25;4958268;28;67233;-66
2021/09/05 06:24:43;;;;;;;;;;;;;;;;;;;;;
2021/09/05 06:27:18;;;;;;;;;14.75;14.75;;;;;22.82;61.37;101320.88;4951755;28;68837;-66
2021/09/05 06:30:21;;;;;;;;;;;;;;;;;;;;;
2021/09/05 06:33:12;;;;;;;;;15.75;15.75;;;;;22.64;62.02;101305.94;4959348;28;75159;-66
2021/09/05 06:39:04;;;;;;;;;17.75;17.75;;;;;22.66;61.40;101312.97;4940262;28;45581;-66
2021/09/05 06:41:29;;;;;;;;;15.25;15.25;;;;;22.88;61.96;101353.06;4957126;28;45656;-65
2021/09/05 06:43:56;;;;;;;;;18.25;16.00;;;;;22.69;61.10;101331.81;4960456;28;45461;-66
2021/09/05 06:46:21;;;;;;;;;17.75;16.00;;;;;22.71;61.35;101320.81;4960064;28;45156;-66
2021/09/05 06:48:47;;;;;;;;;15.00;14.00;;;;;22.83;61.63;101346.22;4960328;28;45139;-65
2021/09/05 06:51:13;;;;;;;;;16.75;15.75;;;;;22.77;61.13;101339.41;4941796;28;45584;-66
2021/09/05 06:53:39;;;;;;;;;18.50;15.50;;;;;22.71;61.54;101338.00;4958012;28;45284;-65
2021/09/05 06:56:05;;;;;;;;;18.50;18.25;;;;;22.70;61.15;101343.53;4963492;28;45262;-65
2021/09/05 06:58:31;;;;;;;;;16.25;16.25;;;;;22.82;61.25;101355.38;4955456;28;45596;-65
2021/09/05 07:00:56;;;;;;;;;19.75;16.75;;;;;22.87;61.60;101369.50;4958721;28;45422;-65
2021/09/05 07:03:22;;;;;;;;;18.00;16.00;;;;;22.89;61.46;101379.31;4963603;28;45461;-66
2021/09/05 07:05:47;;;;;;;;;15.50;15.50;;;;;22.71;61.36;101348.03;4961633;28;45512;-66
2021/09/05 07:08:13;;;;;;;;;19.00;17.50;;;;;22.68;61.49;101340.06;4961313;28;45405;-66
2021/09/05 07:10:39;;;;;;;;;19.50;18.50;;;;;22.74;61.02;101353.25;4944527;28;45564;-66
2021/09/05 07:13:04;;;;;;;;;14.25;14.25;;;;;22.68;61.15;101348.25;4958460;28;45644;-65
2021/09/05 07:15:30;;;;;;;;;19.75;15.00;;;;;22.51;60.55;101325.00;4963225;28;45437;-65
2021/09/05 07:17:55;;;;;;;;;19.50;18.25;;;;;22.84;60.78;101376.06;4963074;28;45315;-65
2021/09/05 07:20:21;;;;;;;;;20.00;19.75;;;;;22.81;60.74;101379.00;4961217;28;45257;-66
2021/09/05 07:22:49;;;;;;;;;14.50;14.50;;;;;22.89;60.77;101390.19;4956793;28;46481;-65
2021/09/05 07:25:20;;;;;;;;;16.00;14.75;;;;;22.83;60.87;101378.91;4957217;28;45291;-66
2021/09/05 07:28:06;;;;;;;;;;;;;;;;;;;;;
2021/09/05 07:30:35;;;;;;;;;12.00;12.00;;;;;22.65;60.78;101341.16;4959506;28;74240;-66
2021/09/05 07:33:00;;;;;;;;;16.25;14.50;;;;;22.92;60.81;101389.97;4962303;28;45457;-66
2021/09/05 07:35:33;;;;;;;;;14.75;14.75;;;;;22.58;60.85;101339.88;4962792;28;45437;-66
2021/09/05 07:38:01;;;;;;;;;17.25;15.50;;;;;22.93;60.97;101397.13;4962811;28;45243;-66
2021/09/05 07:40:29;;;;;;;;;13.00;13.00;;;;;22.93;61.42;101388.13;4960339;28;45455;-66
2021/09/05 07:42:57;;;;;;;;;13.75;12.75;;;;;22.82;60.76;101377.16;4954640;28;45532;-66
2021/09/05 07:45:22;;;;;;;;;17.50;16.75;;;;;22.73;60.79;101365.09;4945892;28;45364;-66
2021/09/05 07:47:48;;;;;;;;;14.25;13.50;;;;;22.62;61.16;101345.97;4945093;28;45324;-65
2021/09/05 07:50:15;;;;;;;;;19.75;15.75;;;;;22.58;60.93;101339.88;4962981;28;45283;-65
2021/09/05 07:52:41;;;;;;;;;13.25;13.25;;;;;22.70;60.98;101362.59;4962717;28;45465;-66
2021/09/05 07:55:07;;;;;;;;;15.50;15.50;;;;;22.63;60.18;101342.28;4962856;28;45417;-66
2021/09/05 07:57:33;;;;;;;;;14.00;13.75;;;;;22.84;60.69;101378.78;4961853;28;45441;-66
2021/09/05 08:00:01;;;;;;;;;17.00;15.00;;;;;22.87;60.77;101384.00;4960189;28;45520;-66
2021/09/05 08:02:28;;;;;;;;;13.50;10.75;;;;;22.85;60.27;101380.50;4961580;28;46405;-66
2021/09/05 08:04:54;;;;;;;;;12.00;12.00;;;;;22.79;60.70;101378.25;4960103;28;45355;-65
2021/09/05 08:07:19;;;;;;;;;10.25;10.00;;;;;22.87;59.81;101391.28;4958533;28;46160;-65
2021/09/05 08:09:44;;;;;;;;;15.25;14.00;;;;;22.91;60.79;101395.53;4942660;28;45547;-65
2021/09/05 08:12:30;;;;;;;;;;;;;;;;;;;;;
2021/09/05 08:15:26;;;;;;;;;;;;;;;;;;;;;
2021/09/05 08:18:12;;;;;;;;;18.25;15.25;;;;;23.00;60.64;101407.59;4960694;28;68785;-66
2021/09/05 08:20:40;;;;;;;;;15.75;14.25;;;;;23.11;61.30;101427.59;4944063;28;45473;-66
2021/09/05 08:23:13;;;;;;;;;18.25;15.50;;;;;23.10;60.80;101411.38;4962518;28;45694;-66
2021/09/05 08:25:41;;;;;;;;;16.50;15.00;;;;;23.04;60.36;101404.53;4961644;28;45444;-66
2021/09/05 08:28:10;;;;;;;;;12.25;12.25;;;;;23.06;60.84;101418.91;4960322;28;45351;-66
2021/09/05 08:30:48;;;;;;;;;;;;;;;;;;;;;
2021/09/05 08:33:18;;;;;;;;;15.50;13.25;;;;;23.10;60.81;101417.72;4960440;28;75286;-66
2021/09/05 08:35:47;;;;;;;;;13.00;12.50;;;;;23.06;60.96;101410.75;4960005;28;45487;-65
2021/09/05 08:38:13;;;;;;;;;12.75;10.75;;;;;23.15;60.55;101416.50;4956298;28;45274;-65
2021/09/05 08:40:49;;;;;;;;;15.00;12.25;;;;;23.00;60.89;101388.53;4957757;28;45501;-66
2021/09/05 08:43:20;;;;;;;;;12.00;12.00;;;;;23.17;60.81;101417.25;4953583;28;47026;-65
2021/09/05 08:45:46;;;;;;;;;13.50;12.25;;;;;23.23;60.54;101422.25;4952457;28;45213;-65
2021/09/05 08:48:15;;;;;;;;;15.50;12.75;;;;;23.36;60.84;101435.81;4962097;28;45432;-66
2021/09/05 08:50:44;;;;;;;;;12.00;11.00;;;;;23.19;60.65;101401.66;4962117;28;45489;-65
2021/09/05 08:53:10;;;;;;;;;13.75;13.00;;;;;23.27;60.39;101405.56;4961754;28;45616;-65
2021/09/05 08:55:36;;;;;;;;;17.25;13.75;;;;;23.25;60.46;101398.47;4944134;28;46876;-66
2021/09/05 08:58:02;;;;;;;;;12.50;12.50;;;;;23.52;60.49;101439.09;4961818;28;45493;-65
2021/09/05 09:00:27;;;;;;;;;13.75;13.75;;;;;23.40;60.47;101412.78;4960406;28;45598;-66
2021/09/05 09:03:02;;;;;;;;;11.00;10.25;;;;;23.46;60.57;101426.81;4943625;28;47436;-65
2021/09/05 09:05:56;;;;;;;;;14.75;14.00;;;;;23.38;60.49;101403.88;4944096;28;46291;-66
2021/09/05 09:08:23;;;;;;;;;14.50;14.25;;;;;23.45;60.13;101421.47;4952830;28;45512;-66
2021/09/05 09:11:02;;;;;;;;;11.25;10.75;;;;;23.61;60.26;101438.41;4961713;28;45423;-66
2021/09/05 09:13:39;;;;;;;;;12.00;12.00;;;;;23.42;60.49;101405.34;4961205;28;45532;-67
2021/09/05 09:16:12;;;;;;;;;12.00;12.00;;;;;23.71;60.18;101451.34;4959391;28;45566;-66
2021/09/05 09:18:41;;;;;;;;;11.25;11.25;;;;;23.63;60.27;101430.97;4960965;28;45253;-65
2021/09/05 09:21:18;;;;;;;;;15.00;13.75;;;;;23.57;60.45;101415.09;4959606;28;45351;-65
2021/09/05 09:23:46;;;;;;;;;12.75;12.75;;;;;23.81;60.24;101449.63;4955709;28;46579;-65
2021/09/05 09:26:14;;;;;;;;;14.75;13.25;;;;;23.89;59.52;101457.22;4961587;28;45463;-65
2021/09/05 09:28:50;;;;;;;;;12.50;12.50;;;;;23.63;59.80;101411.03;4961335;28;45376;-65
2021/09/05 09:31:21;;;;;;;;;12.50;12.50;;;;;23.93;59.58;101456.88;4961131;28;45450;-65
2021/09/05 09:34:03;;;;;;;;;12.00;12.00;;;;;23.93;60.06;101454.16;4959638;28;47832;-66
2021/09/05 09:37:01;;;;;;;;;16.50;14.25;;;;;24.00;59.54;101466.31;4943751;28;46425;-66
2021/09/05 09:39:28;;;;;;;;;13.50;13.50;;;;;23.85;59.44;101426.63;4954883;28;45239;-66
2021/09/05 09:41:56;;;;;;;;;17.75;15.00;;;;;23.89;59.61;101424.50;4959174;28;45283;-66
2021/09/05 09:44:28;;;;;;;;;12.75;12.75;;;;;24.07;60.18;101453.06;4949227;28;46238;-65
2021/09/05 09:47:08;;;;;;;;;15.75;15.25;;;;;24.09;59.59;101434.75;4960569;28;45413;-65
2021/09/05 09:50:06;;;;;;;;;12.75;12.75;;;;;23.99;59.53;101431.88;4943977;28;45287;-65
2021/09/05 09:52:44;;;;;;;;;;;;;;;;;;;;;
2021/09/05 09:55:25;;;;;;;;;13.50;13.50;;;;;24.22;59.60;101440.97;4955922;28;73883;-66
2021/09/05 09:57:56;;;;;;;;;14.50;14.00;;;;;24.19;58.48;101445.78;4959604;28;45473;-66
2021/09/05 10:00:32;;;;;;;;;;;;;;;;;;;;;
2021/09/05 10:03:03;;;;;;;;;16.50;16.50;;;;;24.18;58.95;101433.16;4959885;28;71345;-66
2021/09/05 10:05:34;;;;;;;;;12.00;11.00;;;;;24.20;58.71;101428.44;4953109;28;45365;-66
2021/09/05 10:08:00;;;;;;;;;14.75;13.50;;;;;24.19;58.50;101421.22;4931034;28;46033;-66
2021/09/05 10:10:31;;;;;;;;;13.75;13.50;;;;;24.20;58.48;101409.34;4961012;28;45198;-66
2021/09/05 10:13:04;;;;;;;;;16.25;14.50;;;;;24.34;58.35;101420.03;4955137;28;45610;-66
2021/09/05 10:15:36;;;;;;;;;15.00;14.25;;;;;24.25;58.57;101401.66;4948889;28;46419;-66
2021/09/05 10:18:02;;;;;;;;;16.50;15.00;;;;;24.59;58.80;101451.69;4959325;28;45352;-66
2021/09/05 10:20:28;;;;;;;;;16.75;15.75;;;;;24.50;58.77;101425.09;4958429;28;45404;-66
2021/09/05 10:22:57;;;;;;;;;15.25;14.00;;;;;24.50;58.41;101410.59;4951866;28;45442;-66
2021/09/05 10:25:22;;;;;;;;;14.25;14.25;;;;;24.72;57.75;101439.78;4959294;28;45417;-66
2021/09/05 10:27:53;;;;;;;;;15.50;14.25;;;;;24.76;58.37;101433.09;4955186;28;46547;-71
2021/09/05 10:30:21;;;;;;;;;19.50;16.00;;;;;24.63;57.48;101411.38;4952884;28;45474;-74
2021/09/05 10:33:15;;;;;;;;;14.50;14.50;;;;;24.75;57.40;101417.69;4963508;28;45713;-72
2021/09/05 10:35:48;;;;;;;;;12.25;12.25;;;;;24.83;57.84;101431.59;4933652;28;47605;-71
2021/09/05 10:38:20;;;;;;;;;15.00;14.00;;;;;24.93;57.07;101439.88;4962398;28;46082;-75
2021/09/05 10:40:55;;;;;;;;;12.00;12.00;;;;;24.87;57.31;101411.22;4961712;28;45465;-71
2021/09/05 10:43:23;;;;;;;;;17.00;13.75;;;;;24.87;56.97;101410.34;4962035;28;45469;-73
2021/09/05 10:45:57;;;;;;;;;15.25;12.75;;;;;24.95;56.87;101418.78;4948094;28;48041;-71
2021/09/05 10:48:43;;;;;;;;;14.50;12.50;;;;;24.97;56.52;101405.84;4945945;28;45462;-72
2021/09/05 10:51:12;;;;;;;;;13.75;13.50;;;;;24.93;56.82;101391.59;4963581;28;45160;-72
2021/09/05 10:53:53;;;;;;;;;12.25;11.00;;;;;25.04;56.50;101401.63;4962097;28;45520;-72
2021/09/05 10:56:22;;;;;;;;;15.25;13.75;;;;;25.34;56.58;101443.78;4963467;28;45476;-74
2021/09/05 10:58:57;;;;;;;;;13.50;13.50;;;;;25.24;55.76;101416.38;4963122;28;45430;-74
2021/09/05 11:01:29;;;;;;;;;14.75;13.25;;;;;25.32;55.52;101413.00;4962044;28;45498;-74
2021/09/05 11:04:10;;;;;;;;;15.75;15.00;;;;;25.46;56.13;101428.22;4962560;28;45374;-72
2021/09/05 11:06:44;;;;;;;;;13.75;13.25;;;;;25.34;55.98;101416.47;4963321;28;45490;-72
2021/09/05 11:12:25;;;;;;;;;17.25;15.75;;;;;25.59;55.65;101422.59;4961803;28;46769;-74
2021/09/05 11:14:50;;;;;;;;;11.50;11.50;;;;;25.70;55.57;101428.88;4934409;28;45539;-71
2021/09/05 11:17:20;;;;;;;;;10.00;10.00;;;;;25.70;55.12;101419.81;4944567;28;46937;-74
2021/09/05 11:19:46;;;;;;;;;12.75;12.75;;;;;25.77;54.89;101426.47;4960823;28;45563;-71
2021/09/05 11:22:31;;;;;;;;;12.00;11.50;;;;;25.76;54.46;101412.94;4960681;28;45417;-74
2021/09/05 11:25:28;;;;;;;;;10.75;10.75;;;;;25.87;54.79;101427.41;4961977;28;45418;-71
2021/09/05 11:28:03;;;;;;;;;12.25;12.25;;;;;25.78;54.44;101406.34;4961000;28;45463;-72
2021/09/05 11:30:34;;;;;;;;;12.50;12.50;;;;;25.92;54.06;101415.22;4957753;28;45707;-72
2021/09/05 11:33:11;;;;;;;;;14.25;14.25;;;;;25.81;53.98;101397.00;4942332;28;45383;-72
2021/09/05 11:35:49;;;;;;;;;14.25;11.75;;;;;25.91;54.05;101406.16;4940803;28;45617;-73
2021/09/05 11:38:15;;;;;;;;;14.25;13.50;;;;;25.78;54.16;101379.00;4962291;28;46151;-72
2021/09/05 11:40:43;;;;;;;;;27.00;23.75;;;;;26.09;54.33;101420.09;4960428;28;45264;-73
2021/09/05 11:43:16;;;;;;;;;32.75;27.50;;;;;25.99;53.72;101400.03;4954295;28;45271;-72
2021/09/05 11:45:44;;;;;;;;;12.25;12.25;;;;;26.01;53.45;101392.53;4961875;28;45348;-73
2021/09/05 11:48:10;;;;;;;;;13.50;13.25;;;;;26.11;53.22;101414.50;4962482;28;45371;-73
2021/09/05 11:50:37;;;;;;;;;13.25;13.25;;;;;25.86;53.46;101368.25;4962466;28;45327;-72
2021/09/05 11:53:04;;;;;;;;;15.00;13.25;;;;;25.93;53.28;101384.09;4961471;28;45481;-74
2021/09/05 11:55:30;;;;;;;;;15.25;14.75;;;;;26.01;53.23;101401.63;4961175;28;45599;-73
2021/09/05 11:57:56;;;;;;;;;14.25;12.50;;;;;26.14;53.12;101428.75;4962503;28;45426;-74
2021/09/05 12:00:28;;;;;;;;;12.75;12.75;;;;;26.14;52.97;101420.56;4962252;28;45236;-74
2021/09/05 12:02:54;;;;;;;;;13.50;13.50;;;;;25.94;53.74;101383.97;4945324;28;45465;-74
2021/09/05 12:05:21;;;;;;;;;11.50;11.50;;;;;26.17;53.38;101409.34;4962200;28;45335;-73
2021/09/05 12:07:46;;;;;;;;;14.25;14.25;;;;;26.15;53.48;101399.56;4960913;28;46153;-73
2021/09/05 12:10:15;;;;;;;;;11.75;11.25;;;;;26.30;52.37;101395.47;4961155;28;45371;-74
2021/09/05 12:12:42;;;;;;;;;10.50;10.50;;;;;26.14;51.72;101364.97;4952235;28;45333;-80
2021/09/05 12:15:15;;;;;;;;;11.50;11.50;;;;;26.29;51.23;101387.38;4951486;28;45244;-73
2021/09/05 12:17:49;;;;;;;;;9.75;9.25;;;;;26.38;51.85;101405.69;4955134;28;47128;-73
2021/09/05 12:20:22;;;;;;;;;10.00;10.00;;;;;26.41;52.26;101405.44;4962570;28;45251;-74
2021/09/05 12:22:50;;;;;;;;;12.00;11.25;;;;;26.47;51.44;101401.31;4956841;28;45231;-75
2021/09/05 12:25:26;;;;;;;;;10.25;10.25;;;;;26.69;50.67;101435.84;4960318;28;46636;-73
2021/09/05 12:28:04;;;;;;;;;11.50;11.50;;;;;26.72;50.67;101436.44;4962185;28;45423;-75
2021/09/05 12:30:37;;;;;;;;;9.75;9.75;;;;;26.42;50.88;101377.94;4960470;28;45525;-73
2021/09/05 12:33:32;;;;;;;;;11.75;11.75;;;;;26.48;50.29;101383.84;4961767;28;45282;-76
2021/09/05 12:36:20;;;;;;;;;9.25;9.25;;;;;26.72;50.45;101422.75;4951693;28;45401;-75
2021/09/05 12:38:57;;;;;;;;;9.75;9.75;;;;;26.60;50.20;101388.25;4956905;28;46112;-71
2021/09/05 12:41:32;;;;;;;;;15.50;14.25;;;;;26.65;50.42;101393.31;4955537;28;45368;-85
2021/09/05 12:44:00;;;;;;;;;12.50;10.75;;;;;26.85;50.58;101416.16;4941076;28;45440;-72
2021/09/05 12:46:35;;;;;;;;;12.00;11.50;;;;;26.86;50.78;101418.75;4957370;28;45349;-72
2021/09/05 12:49:18;;;;;;;;;12.25;10.75;;;;;26.77;50.78;101394.94;4960744;28;45601;-72
2021/09/05 12:51:54;;;;;;;;;9.50;9.00;;;;;26.87;49.92;101404.06;4959822;28;45485;-73
2021/09/05 12:54:22;;;;;;;;;10.75;10.75;;;;;26.81;50.20;101388.19;4961844;28;45435;-72
2021/09/05 12:56:48;;;;;;;;;12.75;12.75;;;;;26.89;49.36;101398.44;4960524;28;45528;-72
2021/09/05 12:59:15;;;;;;;;;11.00;10.00;;;;;27.04;49.34;101418.09;4960923;28;45423;-72
2021/09/05 13:01:41;;;;;;;;;10.50;10.25;;;;;27.05;49.78;101409.72;4959717;28;45373;-73
2021/09/05 13:04:07;;;;;;;;;12.50;11.25;;;;;26.89;49.61;101382.00;4957296;28;45385;-72
2021/09/05 13:06:40;;;;;;;;;11.75;11.50;;;;;27.09;49.47;101408.44;4956962;28;45572;-72
2021/09/05 13:09:05;;;;;;;;;9.00;9.00;;;;;26.98;49.67;101387.50;4961134;28;45560;-72
2021/09/05 13:11:31;;;;;;;;;13.50;13.00;;;;;26.86;49.20;101350.28;4954540;28;45435;-75
2021/09/05 13:14:02;;;;;;;;;11.50;11.50;;;;;26.82;49.31;101351.56;4936892;28;45326;-73
2021/09/05 13:16:28;;;;;;;;;10.75;10.25;;;;;26.96;49.04;101367.63;4956800;28;45334;-72
2021/09/05 13:18:53;;;;;;;;;10.25;10.25;;;;;26.90;49.03;101364.56;4961268;28;45344;-72
2021/09/05 13:21:38;;;;;;;;;11.50;10.00;;;;;26.87;49.53;101351.16;4961103;28;45523;-74
2021/09/05 13:24:04;;;;;;;;;11.00;11.00;;;;;26.84;48.92;101332.25;4956579;28;45452;-72
2021/09/05 13:26:32;;;;;;;;;10.50;9.00;;;;;26.91;49.17;101336.16;4959626;28;45293;-71
2021/09/05 13:28:58;;;;;;;;;8.50;8.50;;;;;27.15;49.27;101365.91;4960380;28;45363;-72
2021/09/05 13:31:32;;;;;;;;;9.50;9.50;;;;;27.24;48.26;101381.47;4960694;28;45274;-71
2021/09/05 13:34:06;;;;;;;;;8.50;7.75;;;;;27.03;48.12;101339.63;4958790;28;45468;-71
2021/09/05 13:36:42;;;;;;;;;10.75;8.00;;;;;27.28;48.48;101374.72;4959944;28;45652;-71
2021/09/05 13:39:07;;;;;;;;;10.00;10.00;;;;;27.09;48.15;101341.81;4941566;28;47924;-71
2021/09/05 13:41:33;;;;;;;;;10.00;10.00;;;;;27.18;48.04;101351.91;4960400;28;45476;-71
2021/09/05 13:43:58;;;;;;;;;8.00;8.00;;;;;27.33;47.87;101363.34;4960806;28;45232;-71
2021/09/05 13:46:23;;;;;;;;;7.50;7.50;;;;;27.34;47.39;101363.19;4942351;28;45546;-71
2021/09/05 13:48:52;;;;;;;;;9.00;9.00;;;;;27.27;47.66;101344.72;4960685;28;45548;-71
2021/09/05 13:51:17;;;;;;;;;8.50;8.50;;;;;27.36;48.42;101346.59;4960578;28;45590;-71
2021/09/05 13:53:44;;;;;;;;;10.25;9.00;;;;;27.51;48.29;101366.22;4939687;28;45410;-71
2021/09/05 13:56:09;;;;;;;;;11.75;11.75;;;;;27.38;47.59;101341.84;4957104;28;45385;-71
2021/09/05 13:58:35;;;;;;;;;23.00;19.00;;;;;27.45;48.14;101342.13;4960270;28;46288;-72
2021/09/05 14:01:00;;;;;;;;;11.00;11.00;;;;;27.50;47.52;101350.78;4958865;28;45450;-72
2021/09/05 14:03:26;;;;;;;;;11.00;10.00;;;;;27.43;47.90;101327.69;4958970;28;45477;-71
2021/09/05 14:05:51;;;;;;;;;9.00;8.50;;;;;27.49;47.09;101336.19;4960557;28;45335;-72
2021/09/05 14:08:16;;;;;;;;;8.75;8.75;;;;;27.49;46.50;101336.19;4960695;28;46646;-73
2021/09/05 14:10:42;;;;;;;;;10.50;10.50;;;;;27.63;47.02;101359.59;4959079;28;45224;-72
2021/09/05 14:13:07;;;;;;;;;11.00;10.25;;;;;27.55;47.01;101337.50;4959584;28;45242;-71
2021/09/05 14:15:33;;;;;;;;;9.00;9.00;;;;;27.69;46.78;101358.13;4954739;28;45216;-72
2021/09/05 14:20:48;;;;;;;;;;;;;;;;;;;;;
2021/09/05 14:24:06;;;;;;;;;9.50;9.50;;;;;27.88;46.69;101368.19;4901945;29;68809;-70
2021/09/05 14:55:57;;;;;;;;;8.50;8.50;;;;;27.91;46.96;101355.03;4902078;29;45485;-73
2021/09/05 15:59:12;;;;;;;;;9.50;8.00;;;;;27.61;51.40;101349.75;4960418;28;45493;-72
2021/09/05 16:17:00;;;;;;;;;;;;;;;;;;;;;
2021/09/05 16:20:20;;;;;;;;;;;;;;;;;;;;;
2021/09/05 16:22:52;;;;;;;;;9.25;9.25;;;;;27.63;56.20;101405.31;4888874;29;75116;-72
2021/09/05 16:25:20;;;;;;;;;11.00;10.00;;;;;27.49;56.83;101391.03;4895523;28;45801;-71
2021/09/05 16:28:26;;;;;;;;;;;;;;;;;;;;;
2021/09/05 16:31:12;;;;;;;;;9.75;9.25;;;;;27.52;57.45;101401.72;4909119;28;71762;-71
2021/09/05 16:34:20;;;;;;;;;11.50;9.25;;;;;27.17;57.28;101350.19;4960203;28;45247;-71